sensor_id;sensor_type;location;lat;lon;timestamp;pressure;altitude;pressure_sealevel;temperature
71897;BMP280;59767;51.344;12.362;2022-11-15T00:02:46;160716.88;;;8.10
71897;BMP280;59767;51.344;12.362;2022-11-15T00:05:50;160722.09;;;8.12
71897;BMP280;59767;51.344;12.362;2022-11-15T00:08:57;160731.25;;;8.16
71897;BMP280;59767;51.344;12.362;2022-11-15T00:12:01;160744.34;;;8.21
71897;BMP280;59767;51.344;12.362;2022-11-15T00:15:06;160733.84;;;8.17
71897;BMP280;59767;51.344;12.362;2022-11-15T00:18:14;160741.72;;;8.20
71897;BMP280;59767;51.344;12.362;2022-11-15T00:21:18;160737.78;;;8.18
71897;BMP280;59767;51.344;12.362;2022-11-15T00:24:22;160746.91;;;8.22
71897;BMP280;59767;51.344;12.362;2022-11-15T00:27:26;160761.31;;;8.27
71897;BMP280;59767;51.344;12.362;2022-11-15T00:30:30;160756.09;;;8.25
71897;BMP280;59767;51.344;12.362;2022-11-15T00:33:35;160761.31;;;8.27
71897;BMP280;59767;51.344;12.362;2022-11-15T00:36:39;160729.94;;;8.15
71897;BMP280;59767;51.344;12.362;2022-11-15T00:39:43;160719.47;;;8.11
71897;BMP280;59767;51.344;12.362;2022-11-15T00:42:46;160737.78;;;8.18
71897;BMP280;59767;51.344;12.362;2022-11-15T00:45:51;160732.59;;;8.16
71897;BMP280;59767;51.344;12.362;2022-11-15T00:48:54;160732.59;;;8.16
71897;BMP280;59767;51.344;12.362;2022-11-15T00:51:58;160726.00;;;8.14
71897;BMP280;59767;51.344;12.362;2022-11-15T00:55:03;160732.59;;;8.16
71897;BMP280;59767;51.344;12.362;2022-11-15T00:58:07;160732.59;;;8.16
71897;BMP280;59767;51.344;12.362;2022-11-15T01:01:13;160735.19;;;8.17
71897;BMP280;59767;51.344;12.362;2022-11-15T01:04:17;160729.94;;;8.15
71897;BMP280;59767;51.344;12.362;2022-11-15T01:07:22;160723.41;;;8.13
71897;BMP280;59767;51.344;12.362;2022-11-15T01:10:26;160729.94;;;8.15
71897;BMP280;59767;51.344;12.362;2022-11-15T01:13:32;160703.84;;;8.05
71897;BMP280;59767;51.344;12.362;2022-11-15T01:16:37;160698.59;;;8.03
71897;BMP280;59767;51.344;12.362;2022-11-15T01:19:41;160695.94;;;8.02
71897;BMP280;59767;51.344;12.362;2022-11-15T01:22:45;160688.13;;;7.99
71897;BMP280;59767;51.344;12.362;2022-11-15T01:25:49;160679.00;;;7.96
71897;BMP280;59767;51.344;12.362;2022-11-15T01:28:53;160693.34;;;8.01
71897;BMP280;59767;51.344;12.362;2022-11-15T01:31:57;160667.19;;;7.91
71897;BMP280;59767;51.344;12.362;2022-11-15T01:35:02;160648.94;;;7.84
71897;BMP280;59767;51.344;12.362;2022-11-15T01:38:07;160664.59;;;7.90
71897;BMP280;59767;51.344;12.362;2022-11-15T01:41:20;160656.78;;;7.87
71897;BMP280;59767;51.344;12.362;2022-11-15T01:47:40;160651.53;;;7.85
71897;BMP280;59767;51.344;12.362;2022-11-15T01:50:47;160673.75;;;7.94
71897;BMP280;59767;51.344;12.362;2022-11-15T01:53:55;160675.09;;;7.94
71897;BMP280;59767;51.344;12.362;2022-11-15T01:57:06;160685.53;;;7.98
71897;BMP280;59767;51.344;12.362;2022-11-15T02:00:12;160690.78;;;8.00
71897;BMP280;59767;51.344;12.362;2022-11-15T02:03:16;160684.22;;;7.98
71897;BMP280;59767;51.344;12.362;2022-11-15T02:06:21;160675.09;;;7.94
71897;BMP280;59767;51.344;12.362;2022-11-15T02:09:26;160679.00;;;7.96
71897;BMP280;59767;51.344;12.362;2022-11-15T02:12:30;160682.94;;;7.97
71897;BMP280;59767;51.344;12.362;2022-11-15T02:15:48;160688.13;;;7.99
71897;BMP280;59767;51.344;12.362;2022-11-15T02:19:02;160685.53;;;7.98
71897;BMP280;59767;51.344;12.362;2022-11-15T02:25:52;160690.78;;;8.00
71897;BMP280;59767;51.344;12.362;2022-11-15T02:29:11;160684.22;;;7.98
71897;BMP280;59767;51.344;12.362;2022-11-15T02:32:22;160703.84;;;8.05
71897;BMP280;59767;51.344;12.362;2022-11-15T02:35:44;160685.53;;;7.98
71897;BMP280;59767;51.344;12.362;2022-11-15T02:39:04;160689.47;;;8.00
71897;BMP280;59767;51.344;12.362;2022-11-15T02:42:17;160665.91;;;7.91
71897;BMP280;59767;51.344;12.362;2022-11-15T02:45:46;160689.47;;;8.00
71897;BMP280;59767;51.344;12.362;2022-11-15T02:48:52;160677.69;;;7.95
71897;BMP280;59767;51.344;12.362;2022-11-15T02:51:56;160669.84;;;7.92
71897;BMP280;59767;51.344;12.362;2022-11-15T02:55:01;160672.44;;;7.93
71897;BMP280;59767;51.344;12.362;2022-11-15T02:58:31;160668.50;;;7.92
71897;BMP280;59767;51.344;12.362;2022-11-15T03:01:57;160675.09;;;7.94
71897;BMP280;59767;51.344;12.362;2022-11-15T03:05:30;160654.19;;;7.86
71897;BMP280;59767;51.344;12.362;2022-11-15T03:08:50;160654.19;;;7.86
71897;BMP280;59767;51.344;12.362;2022-11-15T03:12:06;160639.78;;;7.81
71897;BMP280;59767;51.344;12.362;2022-11-15T03:15:21;160628.06;;;7.76
71897;BMP280;59767;51.344;12.362;2022-11-15T03:18:32;160643.69;;;7.82
71897;BMP280;59767;51.344;12.362;2022-11-15T03:21:38;160652.88;;;7.86
71897;BMP280;59767;51.344;12.362;2022-11-15T03:24:45;160654.19;;;7.86
71897;BMP280;59767;51.344;12.362;2022-11-15T03:27:54;160686.88;;;7.99
71897;BMP280;59767;51.344;12.362;2022-11-15T03:31:01;160694.66;;;8.02
71897;BMP280;59767;51.344;12.362;2022-11-15T03:34:27;160712.97;;;8.09
71897;BMP280;59767;51.344;12.362;2022-11-15T03:43:56;160701.19;;;8.04
71897;BMP280;59767;51.344;12.362;2022-11-15T03:50:26;160690.78;;;8.00
71897;BMP280;59767;51.344;12.362;2022-11-15T03:53:30;160679.00;;;7.96
71897;BMP280;59767;51.344;12.362;2022-11-15T03:56:36;160692.00;;;8.01
71897;BMP280;59767;51.344;12.362;2022-11-15T03:59:39;160714.28;;;8.09
71897;BMP280;59767;51.344;12.362;2022-11-15T04:02:44;160693.34;;;8.01
71897;BMP280;59767;51.344;12.362;2022-11-15T04:05:48;160679.00;;;7.96
71897;BMP280;59767;51.344;12.362;2022-11-15T04:08:52;160651.53;;;7.85
71897;BMP280;59767;51.344;12.362;2022-11-15T04:11:56;160646.28;;;7.83
71897;BMP280;59767;51.344;12.362;2022-11-15T04:15:03;160669.84;;;7.92
71897;BMP280;59767;51.344;12.362;2022-11-15T04:18:11;160659.41;;;7.88
71897;BMP280;59767;51.344;12.362;2022-11-15T04:21:15;160638.44;;;7.80
71897;BMP280;59767;51.344;12.362;2022-11-15T04:24:38;160638.44;;;7.80
71897;BMP280;59767;51.344;12.362;2022-11-15T04:27:42;160608.44;;;7.69
71897;BMP280;59767;51.344;12.362;2022-11-15T04:30:46;160645.03;;;7.83
71897;BMP280;59767;51.344;12.362;2022-11-15T04:33:50;160676.38;;;7.95
71897;BMP280;59767;51.344;12.362;2022-11-15T04:36:54;160667.19;;;7.91
71897;BMP280;59767;51.344;12.362;2022-11-15T04:40:17;160699.91;;;8.04
71897;BMP280;59767;51.344;12.362;2022-11-15T04:43:21;160715.63;;;8.10
71897;BMP280;59767;51.344;12.362;2022-11-15T04:46:26;160690.78;;;8.00
71897;BMP280;59767;51.344;12.362;2022-11-15T04:49:30;160671.13;;;7.93
71897;BMP280;59767;51.344;12.362;2022-11-15T04:52:34;160651.53;;;7.85
71897;BMP280;59767;51.344;12.362;2022-11-15T04:55:38;160651.53;;;7.85
71897;BMP280;59767;51.344;12.362;2022-11-15T04:58:42;160645.03;;;7.83
71897;BMP280;59767;51.344;12.362;2022-11-15T05:01:47;160641.09;;;7.81
71897;BMP280;59767;51.344;12.362;2022-11-15T05:04:51;160654.19;;;7.86
71897;BMP280;59767;51.344;12.362;2022-11-15T05:07:55;160628.06;;;7.76
71897;BMP280;59767;51.344;12.362;2022-11-15T05:10:59;160638.44;;;7.80
71897;BMP280;59767;51.344;12.362;2022-11-15T05:14:03;160626.72;;;7.76
71897;BMP280;59767;51.344;12.362;2022-11-15T05:17:07;160617.56;;;7.72
71897;BMP280;59767;51.344;12.362;2022-11-15T05:20:11;160618.88;;;7.73
71897;BMP280;59767;51.344;12.362;2022-11-15T05:23:15;160628.06;;;7.76
71897;BMP280;59767;51.344;12.362;2022-11-15T05:26:20;160659.41;;;7.88
71897;BMP280;59767;51.344;12.362;2022-11-15T05:29:24;160613.63;;;7.71
71897;BMP280;59767;51.344;12.362;2022-11-15T05:32:28;160596.66;;;7.64
71897;BMP280;59767;51.344;12.362;2022-11-15T05:35:40;160583.63;;;7.59
71897;BMP280;59767;51.344;12.362;2022-11-15T05:38:45;160603.25;;;7.67
71897;BMP280;59767;51.344;12.362;2022-11-15T05:41:53;160596.66;;;7.64
71897;BMP280;59767;51.344;12.362;2022-11-15T05:45:02;160599.31;;;7.65
71897;BMP280;59767;51.344;12.362;2022-11-15T05:48:08;160609.72;;;7.69
71897;BMP280;59767;51.344;12.362;2022-11-15T05:51:13;160633.31;;;7.78
71897;BMP280;59767;51.344;12.362;2022-11-15T05:54:19;160624.13;;;7.75
71897;BMP280;59767;51.344;12.362;2022-11-15T05:57:24;160642.38;;;7.82
71897;BMP280;59767;51.344;12.362;2022-11-15T06:00:28;160625.47;;;7.75
71897;BMP280;59767;51.344;12.362;2022-11-15T06:03:32;160608.44;;;7.69
71897;BMP280;59767;51.344;12.362;2022-11-15T06:06:36;160598.00;;;7.65
71897;BMP280;59767;51.344;12.362;2022-11-15T06:09:41;160587.53;;;7.61
71897;BMP280;59767;51.344;12.362;2022-11-15T06:12:45;160588.81;;;7.61
71897;BMP280;59767;51.344;12.362;2022-11-15T06:15:49;160580.97;;;7.58
71897;BMP280;59767;51.344;12.362;2022-11-15T06:18:52;160580.97;;;7.58
71897;BMP280;59767;51.344;12.362;2022-11-15T06:21:57;160587.53;;;7.61
71897;BMP280;59767;51.344;12.362;2022-11-15T06:25:01;160578.44;;;7.57
71897;BMP280;59767;51.344;12.362;2022-11-15T06:28:08;160583.63;;;7.59
71897;BMP280;59767;51.344;12.362;2022-11-15T06:31:12;160620.22;;;7.73
71897;BMP280;59767;51.344;12.362;2022-11-15T06:34:17;160604.56;;;7.67
71897;BMP280;59767;51.344;12.362;2022-11-15T06:37:21;160607.16;;;7.68
71897;BMP280;59767;51.344;12.362;2022-11-15T06:40:25;160605.84;;;7.68
71897;BMP280;59767;51.344;12.362;2022-11-15T06:43:29;160596.66;;;7.64
71897;BMP280;59767;51.344;12.362;2022-11-15T06:46:34;160600.63;;;7.66
71897;BMP280;59767;51.344;12.362;2022-11-15T06:49:38;160599.31;;;7.65
71897;BMP280;59767;51.344;12.362;2022-11-15T06:52:42;160614.97;;;7.71
71897;BMP280;59767;51.344;12.362;2022-11-15T06:55:46;160634.56;;;7.79
71897;BMP280;59767;51.344;12.362;2022-11-15T06:58:57;160624.13;;;7.75
71897;BMP280;59767;51.344;12.362;2022-11-15T07:02:02;160620.22;;;7.73
71897;BMP280;59767;51.344;12.362;2022-11-15T07:05:06;160617.56;;;7.72
71897;BMP280;59767;51.344;12.362;2022-11-15T07:08:10;160625.47;;;7.75
71897;BMP280;59767;51.344;12.362;2022-11-15T07:11:15;160638.44;;;7.80
71897;BMP280;59767;51.344;12.362;2022-11-15T07:14:19;160650.28;;;7.85
71897;BMP280;59767;51.344;12.362;2022-11-15T07:17:23;160664.59;;;7.90
71897;BMP280;59767;51.344;12.362;2022-11-15T07:20:27;160679.00;;;7.96
71897;BMP280;59767;51.344;12.362;2022-11-15T07:23:32;160682.94;;;7.97
71897;BMP280;59767;51.344;12.362;2022-11-15T07:26:37;160702.50;;;8.05
71897;BMP280;59767;51.344;12.362;2022-11-15T07:29:41;160711.69;;;8.08
71897;BMP280;59767;51.344;12.362;2022-11-15T07:32:45;160722.09;;;8.12
71897;BMP280;59767;51.344;12.362;2022-11-15T07:35:50;160727.34;;;8.14
71897;BMP280;59767;51.344;12.362;2022-11-15T07:38:54;160722.09;;;8.12
71897;BMP280;59767;51.344;12.362;2022-11-15T07:41:58;160761.31;;;8.27
71897;BMP280;59767;51.344;12.362;2022-11-15T07:45:23;160783.50;;;8.36
71897;BMP280;59767;51.344;12.362;2022-11-15T07:48:30;160829.25;;;8.53
71897;BMP280;59767;51.344;12.362;2022-11-15T07:51:46;160833.16;;;8.55
71897;BMP280;59767;51.344;12.362;2022-11-15T07:54:50;160834.50;;;8.55
71897;BMP280;59767;51.344;12.362;2022-11-15T07:58:01;160848.91;;;8.61
71897;BMP280;59767;51.344;12.362;2022-11-15T08:01:06;160869.81;;;8.69
71897;BMP280;59767;51.344;12.362;2022-11-15T08:04:11;160877.63;;;8.72
71897;BMP280;59767;51.344;12.362;2022-11-15T08:07:15;160892.00;;;8.77
71897;BMP280;59767;51.344;12.362;2022-11-15T08:10:19;160920.78;;;8.88
71897;BMP280;59767;51.344;12.362;2022-11-15T08:13:24;160944.34;;;8.98
71897;BMP280;59767;51.344;12.362;2022-11-15T08:16:28;160986.09;;;9.14
71897;BMP280;59767;51.344;12.362;2022-11-15T08:19:32;161022.72;;;9.28
71897;BMP280;59767;51.344;12.362;2022-11-15T08:22:36;161056.72;;;9.41
71897;BMP280;59767;51.344;12.362;2022-11-15T08:25:40;161082.88;;;9.51
71897;BMP280;59767;51.344;12.362;2022-11-15T08:28:45;161114.31;;;9.63
71897;BMP280;59767;51.344;12.362;2022-11-15T08:31:49;161192.75;;;9.93
71897;BMP280;59767;51.344;12.362;2022-11-15T08:34:53;161233.28;;;10.08
71897;BMP280;59767;51.344;12.362;2022-11-15T08:37:57;161288.25;;;10.29
71897;BMP280;59767;51.344;12.362;2022-11-15T08:41:03;161337.91;;;10.48
71897;BMP280;59767;51.344;12.362;2022-11-15T08:44:08;161378.47;;;10.64
71897;BMP280;59767;51.344;12.362;2022-11-15T08:47:12;161424.28;;;10.81
71897;BMP280;59767;51.344;12.362;2022-11-15T08:50:17;161422.94;;;10.81
71897;BMP280;59767;51.344;12.362;2022-11-15T08:53:21;161467.44;;;10.98
71897;BMP280;59767;51.344;12.362;2022-11-15T08:56:25;161487.09;;;11.05
71897;BMP280;59767;51.344;12.362;2022-11-15T08:59:29;161509.31;;;11.14
71897;BMP280;59767;51.344;12.362;2022-11-15T09:02:33;161517.19;;;11.17
71897;BMP280;59767;51.344;12.362;2022-11-15T09:05:37;161548.59;;;11.29
71897;BMP280;59767;51.344;12.362;2022-11-15T09:08:41;161587.84;;;11.44
71897;BMP280;59767;51.344;12.362;2022-11-15T09:11:51;161611.44;;;11.53
71897;BMP280;59767;51.344;12.362;2022-11-15T09:14:55;161624.50;;;11.58
71897;BMP280;59767;51.344;12.362;2022-11-15T09:17:59;161659.81;;;11.71
71897;BMP280;59767;51.344;12.362;2022-11-15T09:21:03;161658.50;;;11.71
71897;BMP280;59767;51.344;12.362;2022-11-15T09:24:08;161676.84;;;11.78
71897;BMP280;59767;51.344;12.362;2022-11-15T09:27:12;161666.38;;;11.74
71897;BMP280;59767;51.344;12.362;2022-11-15T09:30:17;161657.22;;;11.70
71897;BMP280;59767;51.344;12.362;2022-11-15T09:33:21;161645.41;;;11.66
71897;BMP280;59767;51.344;12.362;2022-11-15T09:36:25;161650.69;;;11.68
71897;BMP280;59767;51.344;12.362;2022-11-15T09:39:29;161667.69;;;11.74
71897;BMP280;59767;51.344;12.362;2022-11-15T09:42:49;161672.91;;;11.76
71897;BMP280;59767;51.344;12.362;2022-11-15T09:49:19;161710.88;;;11.91
71897;BMP280;59767;51.344;12.362;2022-11-15T09:52:23;161754.06;;;12.07
71897;BMP280;59767;51.344;12.362;2022-11-15T09:55:38;161776.34;;;12.16
71897;BMP280;59767;51.344;12.362;2022-11-15T09:58:56;161799.88;;;12.25
71897;BMP280;59767;51.344;12.362;2022-11-15T10:05:15;161844.44;;;12.42
71897;BMP280;59767;51.344;12.362;2022-11-15T10:08:40;161858.81;;;12.47
71897;BMP280;59767;51.344;12.362;2022-11-15T10:11:45;161878.44;;;12.55
71897;BMP280;59767;51.344;12.362;2022-11-15T10:14:54;161896.81;;;12.62
71897;BMP280;59767;51.344;12.362;2022-11-15T10:18:16;161926.94;;;12.73
71897;BMP280;59767;51.344;12.362;2022-11-15T10:21:28;161987.16;;;12.96
71897;BMP280;59767;51.344;12.362;2022-11-15T10:24:37;161977.97;;;12.93
71897;BMP280;59767;51.344;12.362;2022-11-15T10:27:45;161979.28;;;12.93
71897;BMP280;59767;51.344;12.362;2022-11-15T10:30:53;162014.69;;;13.07
71897;BMP280;59767;51.344;12.362;2022-11-15T10:34:16;162010.69;;;13.05
71897;BMP280;59767;51.344;12.362;2022-11-15T10:37:28;162015.97;;;13.07
71897;BMP280;59767;51.344;12.362;2022-11-15T10:40:33;162023.84;;;13.10
71897;BMP280;59767;51.344;12.362;2022-11-15T10:43:38;162040.88;;;13.17
71897;BMP280;59767;51.344;12.362;2022-11-15T10:46:42;162038.25;;;13.16
71897;BMP280;59767;51.344;12.362;2022-11-15T10:49:58;162074.94;;;13.30
71897;BMP280;59767;51.344;12.362;2022-11-15T10:53:02;162086.72;;;13.34
71897;BMP280;59767;51.344;12.362;2022-11-15T10:56:08;162094.53;;;13.37
71897;BMP280;59767;51.344;12.362;2022-11-15T10:59:24;162108.97;;;13.43
71897;BMP280;59767;51.344;12.362;2022-11-15T11:02:39;162114.22;;;13.45
71897;BMP280;59767;51.344;12.362;2022-11-15T11:05:43;162114.22;;;13.45
71897;BMP280;59767;51.344;12.362;2022-11-15T11:08:59;162114.22;;;13.45
71897;BMP280;59767;51.344;12.362;2022-11-15T11:12:05;162116.84;;;13.46
71897;BMP280;59767;51.344;12.362;2022-11-15T11:15:15;162144.31;;;13.56
71897;BMP280;59767;51.344;12.362;2022-11-15T11:18:55;162140.38;;;13.55
71897;BMP280;59767;51.344;12.362;2022-11-15T11:25:22;162158.75;;;13.62
71897;BMP280;59767;51.344;12.362;2022-11-15T11:39:14;162200.72;;;13.78
71897;BMP280;59767;51.344;12.362;2022-11-15T11:42:43;162177.06;;;13.69
71897;BMP280;59767;51.344;12.362;2022-11-15T11:49:17;162222.91;;;13.86
71897;BMP280;59767;51.344;12.362;2022-11-15T11:52:35;162225.56;;;13.87
71897;BMP280;59767;51.344;12.362;2022-11-15T11:55:53;162219.03;;;13.85
71897;BMP280;59767;51.344;12.362;2022-11-15T12:03:27;162253.06;;;13.98
71897;BMP280;59767;51.344;12.362;2022-11-15T12:09:20;162281.94;;;14.09
71897;BMP280;59767;51.344;12.362;2022-11-15T12:15:50;162267.53;;;14.03
71897;BMP280;59767;51.344;12.362;2022-11-15T12:19:00;162253.06;;;13.98
71897;BMP280;59767;51.344;12.362;2022-11-15T12:22:21;162253.06;;;13.98
71897;BMP280;59767;51.344;12.362;2022-11-15T12:25:33;162266.22;;;14.03
71897;BMP280;59767;51.344;12.362;2022-11-15T12:28:45;162258.34;;;14.00
71897;BMP280;59767;51.344;12.362;2022-11-15T12:32:26;162239.97;;;13.93
71897;BMP280;59767;51.344;12.362;2022-11-15T12:35:37;162258.34;;;14.00
71897;BMP280;59767;51.344;12.362;2022-11-15T12:45:27;162284.53;;;14.10
71897;BMP280;59767;51.344;12.362;2022-11-15T12:54:53;162278.00;;;14.07
71897;BMP280;59767;51.344;12.362;2022-11-15T12:58:27;162288.47;;;14.11
71897;BMP280;59767;51.344;12.362;2022-11-15T13:04:37;162301.53;;;14.16
71897;BMP280;59767;51.344;12.362;2022-11-15T13:18:36;162279.31;;;14.08
71897;BMP280;59767;51.344;12.362;2022-11-15T13:21:48;162272.72;;;14.05
71897;BMP280;59767;51.344;12.362;2022-11-15T13:25:19;162276.66;;;14.07
71897;BMP280;59767;51.344;12.362;2022-11-15T13:28:51;162271.44;;;14.05
71897;BMP280;59767;51.344;12.362;2022-11-15T13:31:58;162274.03;;;14.06
71897;BMP280;59767;51.344;12.362;2022-11-15T13:35:06;162296.38;;;14.14
71897;BMP280;59767;51.344;12.362;2022-11-15T13:38:19;162300.25;;;14.16
71897;BMP280;59767;51.344;12.362;2022-11-15T13:41:31;162315.97;;;14.22
71897;BMP280;59767;51.344;12.362;2022-11-15T13:44:36;162319.91;;;14.23
71897;BMP280;59767;51.344;12.362;2022-11-15T13:47:40;162343.50;;;14.32
71897;BMP280;59767;51.344;12.362;2022-11-15T13:50:44;162336.94;;;14.30
71897;BMP280;59767;51.344;12.362;2022-11-15T13:53:57;162313.41;;;14.21
71897;BMP280;59767;51.344;12.362;2022-11-15T14:03:35;162229.53;;;13.89
71897;BMP280;59767;51.344;12.362;2022-11-15T14:06:48;162239.97;;;13.93
71897;BMP280;59767;51.344;12.362;2022-11-15T14:09:52;162220.34;;;13.85
71897;BMP280;59767;51.344;12.362;2022-11-15T14:12:57;162187.59;;;13.73
71897;BMP280;59767;51.344;12.362;2022-11-15T14:16:17;162224.25;;;13.87
71897;BMP280;59767;51.344;12.362;2022-11-15T14:22:30;162190.16;;;13.74
71897;BMP280;59767;51.344;12.362;2022-11-15T14:25:35;162186.28;;;13.72
71897;BMP280;59767;51.344;12.362;2022-11-15T14:28:39;162192.81;;;13.75
71897;BMP280;59767;51.344;12.362;2022-11-15T14:31:43;162182.34;;;13.71
71897;BMP280;59767;51.344;12.362;2022-11-15T14:34:58;162195.44;;;13.76
71897;BMP280;59767;51.344;12.362;2022-11-15T14:38:02;162145.66;;;13.57
71897;BMP280;59767;51.344;12.362;2022-11-15T14:44:20;162118.19;;;13.46
71897;BMP280;59767;51.344;12.362;2022-11-15T14:47:25;162105.06;;;13.41
71897;BMP280;59767;51.344;12.362;2022-11-15T14:50:29;162099.81;;;13.39
71897;BMP280;59767;51.344;12.362;2022-11-15T14:53:33;162071.00;;;13.28
71897;BMP280;59767;51.344;12.362;2022-11-15T14:56:37;162044.75;;;13.18
71897;BMP280;59767;51.344;12.362;2022-11-15T14:59:41;162018.63;;;13.08
71897;BMP280;59767;51.344;12.362;2022-11-15T15:02:47;162017.28;;;13.08
71897;BMP280;59767;51.344;12.362;2022-11-15T15:05:51;162030.38;;;13.13
71897;BMP280;59767;51.344;12.362;2022-11-15T15:08:55;162051.34;;;13.21
71897;BMP280;59767;51.344;12.362;2022-11-15T15:11:59;162067.06;;;13.27
71897;BMP280;59767;51.344;12.362;2022-11-15T15:15:13;162042.16;;;13.17
71897;BMP280;59767;51.344;12.362;2022-11-15T15:18:18;162018.63;;;13.08
71897;BMP280;59767;51.344;12.362;2022-11-15T15:21:31;162012.03;;;13.06
71897;BMP280;59767;51.344;12.362;2022-11-15T15:24:41;161979.28;;;12.93
71897;BMP280;59767;51.344;12.362;2022-11-15T15:27:45;161970.13;;;12.90
71897;BMP280;59767;51.344;12.362;2022-11-15T15:30:49;161996.31;;;13.00
71897;BMP280;59767;51.344;12.362;2022-11-15T15:33:53;161970.13;;;12.90
71897;BMP280;59767;51.344;12.362;2022-11-15T15:37:25;161936.06;;;12.77
71897;BMP280;59767;51.344;12.362;2022-11-15T15:40:31;161907.25;;;12.66
71897;BMP280;59767;51.344;12.362;2022-11-15T15:43:35;161888.94;;;12.59
71897;BMP280;59767;51.344;12.362;2022-11-15T15:46:39;161873.22;;;12.53
71897;BMP280;59767;51.344;12.362;2022-11-15T15:49:43;161875.84;;;12.54
71897;BMP280;59767;51.344;12.362;2022-11-15T15:52:49;161886.31;;;12.58
71897;BMP280;59767;51.344;12.362;2022-11-15T15:55:53;161852.31;;;12.45
71897;BMP280;59767;51.344;12.362;2022-11-15T15:58:56;161841.78;;;12.41
71897;BMP280;59767;51.344;12.362;2022-11-15T16:02:00;161853.53;;;12.45
71897;BMP280;59767;51.344;12.362;2022-11-15T16:05:05;161810.41;;;12.29
71897;BMP280;59767;51.344;12.362;2022-11-15T16:08:18;161724.00;;;11.96
71897;BMP280;59767;51.344;12.362;2022-11-15T16:11:22;161697.78;;;11.86
71897;BMP280;59767;51.344;12.362;2022-11-15T16:14:26;161649.41;;;11.67
71897;BMP280;59767;51.344;12.362;2022-11-15T16:17:33;161615.31;;;11.54
71897;BMP280;59767;51.344;12.362;2022-11-15T16:20:41;161578.69;;;11.40
71897;BMP280;59767;51.344;12.362;2022-11-15T16:23:46;161545.94;;;11.28
71897;BMP280;59767;51.344;12.362;2022-11-15T16:26:51;161538.06;;;11.25
71897;BMP280;59767;51.344;12.362;2022-11-15T16:29:55;161511.97;;;11.15
71897;BMP280;59767;51.344;12.362;2022-11-15T16:32:59;161504.09;;;11.12
71897;BMP280;59767;51.344;12.362;2022-11-15T16:36:06;161480.50;;;11.03
71897;BMP280;59767;51.344;12.362;2022-11-15T16:39:11;161462.22;;;10.96
71897;BMP280;59767;51.344;12.362;2022-11-15T16:42:20;161438.63;;;10.87
71897;BMP280;59767;51.344;12.362;2022-11-15T16:45:25;161420.34;;;10.80
71897;BMP280;59767;51.344;12.362;2022-11-15T16:48:31;161415.13;;;10.78
71897;BMP280;59767;51.344;12.362;2022-11-15T16:51:38;161405.94;;;10.74
71897;BMP280;59767;51.344;12.362;2022-11-15T16:54:44;161388.94;;;10.68
71897;BMP280;59767;51.344;12.362;2022-11-15T16:57:48;161371.94;;;10.61
71897;BMP280;59767;51.344;12.362;2022-11-15T17:00:53;161368.00;;;10.60
71897;BMP280;59767;51.344;12.362;2022-11-15T17:03:59;161368.00;;;10.60
71897;BMP280;59767;51.344;12.362;2022-11-15T17:07:14;161365.41;;;10.59
71897;BMP280;59767;51.344;12.362;2022-11-15T17:10:20;161370.66;;;10.61
71897;BMP280;59767;51.344;12.362;2022-11-15T17:13:25;161374.59;;;10.62
71897;BMP280;59767;51.344;12.362;2022-11-15T17:16:29;161373.25;;;10.62
71897;BMP280;59767;51.344;12.362;2022-11-15T17:19:33;161405.94;;;10.74
71897;BMP280;59767;51.344;12.362;2022-11-15T17:22:37;161394.19;;;10.70
71897;BMP280;59767;51.344;12.362;2022-11-15T17:25:41;161386.34;;;10.67
71897;BMP280;59767;51.344;12.362;2022-11-15T17:28:46;161373.25;;;10.62
71897;BMP280;59767;51.344;12.362;2022-11-15T17:31:50;161391.59;;;10.69
71897;BMP280;59767;51.344;12.362;2022-11-15T17:34:54;161383.72;;;10.66
71897;BMP280;59767;51.344;12.362;2022-11-15T17:37:58;161373.25;;;10.62
71897;BMP280;59767;51.344;12.362;2022-11-15T17:41:12;161373.25;;;10.62
71897;BMP280;59767;51.344;12.362;2022-11-15T17:44:17;161381.06;;;10.65
71897;BMP280;59767;51.344;12.362;2022-11-15T17:47:21;161381.06;;;10.65
71897;BMP280;59767;51.344;12.362;2022-11-15T17:50:26;161370.66;;;10.61
71897;BMP280;59767;51.344;12.362;2022-11-15T17:53:32;161358.84;;;10.56
71897;BMP280;59767;51.344;12.362;2022-11-15T17:56:38;161337.91;;;10.48
71897;BMP280;59767;51.344;12.362;2022-11-15T17:59:43;161320.91;;;10.42
71897;BMP280;59767;51.344;12.362;2022-11-15T18:02:47;161297.34;;;10.33
71897;BMP280;59767;51.344;12.362;2022-11-15T18:05:51;161279.06;;;10.26
71897;BMP280;59767;51.344;12.362;2022-11-15T18:08:56;161266.00;;;10.21
71897;BMP280;59767;51.344;12.362;2022-11-15T18:12:00;161262.06;;;10.19
71897;BMP280;59767;51.344;12.362;2022-11-15T18:15:04;161252.88;;;10.16
71897;BMP280;59767;51.344;12.362;2022-11-15T18:18:09;161250.28;;;10.15
71897;BMP280;59767;51.344;12.362;2022-11-15T18:24:18;161230.63;;;10.07
71897;BMP280;59767;51.344;12.362;2022-11-15T18:27:22;161224.13;;;10.05
71897;BMP280;59767;51.344;12.362;2022-11-15T18:30:26;161213.66;;;10.01
71897;BMP280;59767;51.344;12.362;2022-11-15T18:33:33;161204.53;;;9.97
71897;BMP280;59767;51.344;12.362;2022-11-15T18:36:38;161201.88;;;9.96
71897;BMP280;59767;51.344;12.362;2022-11-15T18:39:42;161218.88;;;10.03
71897;BMP280;59767;51.344;12.362;2022-11-15T18:42:46;161246.38;;;10.13
71897;BMP280;59767;51.344;12.362;2022-11-15T18:45:50;161264.66;;;10.20
71897;BMP280;59767;51.344;12.362;2022-11-15T18:48:54;161260.75;;;10.19
71897;BMP280;59767;51.344;12.362;2022-11-15T18:51:59;161286.91;;;10.29
71897;BMP280;59767;51.344;12.362;2022-11-15T18:55:03;161303.94;;;10.35
71897;BMP280;59767;51.344;12.362;2022-11-15T18:58:07;161336.59;;;10.48
71897;BMP280;59767;51.344;12.362;2022-11-15T19:01:16;161328.78;;;10.45
71897;BMP280;59767;51.344;12.362;2022-11-15T19:04:21;161320.91;;;10.42
71897;BMP280;59767;51.344;12.362;2022-11-15T19:07:25;161326.13;;;10.44
71897;BMP280;59767;51.344;12.362;2022-11-15T19:10:29;161331.38;;;10.46